Verviers, Belgium
Current Conditions -  °F | °C
As of 2:25 PM on Monday 20 Oct 2014 (Local Time) from EBLB Reporting Station
Broken Clouds Broken Clouds  
Wind Chill: 55°   Ceiling: 4000
Heat Index: 55°   Visibility: 6mi
Dew Point: 46°   Wind: 8mph
Humidity: 72%   Direction: 240°WSW
Pressure: 30.09"   Gusts: NA
Location:  50.59°N, 5.86°E
Report Text: EBLB 201225Z AUTO 24007KT 9999 FEW019/// BKN040/// 13/08 Q1019 BLU
Loading
Personal Weather Stations






























Interactive Weather Map
Tropical Storm Tracking
New forecast layout! Learn more

10-Day Weather Forecast

Advertisements
Track Severe Weather on mobile